Terminal Aerodrome Forecast
Issued by NWS

Home | Current Version | Previous Version | Graphics & Text | Print | Product List | Glossary On
Versions: 1 2 3 4 5 6 7 8 9 10 11 12 13 14 15 16
000
FTUS43 KFGF 281500 AAA
TAFBJI
TAF AMD
KBJI 281528Z 2815/2912 14007KT 2SM BR OVC004
     FM290400 31015KT P6SM OVC008=

USA.gov is the U.S. government's official web portal to all federal, state and local government web resources and services.